createdAt,value
2023-12-10T00:01:16.003Z,981.4
2023-12-10T00:02:32.260Z,981.4
2023-12-10T00:03:48.000Z,981.5
2023-12-10T00:05:04.855Z,981.5
2023-12-10T00:06:21.000Z,981.4
2023-12-10T00:07:37.000Z,981.4
2023-12-10T00:08:53.768Z,981.4
2023-12-10T00:10:09.073Z,981.4
2023-12-10T00:11:25.372Z,981.5
2023-12-10T00:12:41.665Z,981.4
2023-12-10T00:13:57.968Z,981.4
2023-12-10T00:15:14.251Z,981.4
2023-12-10T00:16:30.505Z,981.4
2023-12-10T00:17:46.000Z,981.4
2023-12-10T00:19:03.000Z,981.5
2023-12-10T00:20:19.386Z,981.5
2023-12-10T00:21:35.728Z,981.5
2023-12-10T00:22:52.007Z,981.5
2023-12-10T00:24:08.311Z,981.5
2023-12-10T00:25:24.600Z,981.6
2023-12-10T00:26:41.000Z,981.6
2023-12-10T00:27:57.000Z,981.6
2023-12-10T00:29:13.000Z,981.6
2023-12-10T00:30:29.000Z,981.6
2023-12-10T00:31:46.191Z,981.6
2023-12-10T00:33:02.478Z,981.5
2023-12-10T00:34:18.000Z,981.6
2023-12-10T00:35:35.066Z,981.6
2023-12-10T00:36:51.000Z,981.7
2023-12-10T00:38:07.000Z,981.7
2023-12-10T00:39:23.000Z,981.6
2023-12-10T00:40:40.211Z,981.6
2023-12-10T00:41:56.541Z,981.6
2023-12-10T00:43:11.811Z,981.6
2023-12-10T00:44:28.157Z,981.6
2023-12-10T00:45:44.402Z,981.6
2023-12-10T00:47:00.707Z,981.5
2023-12-10T00:48:17.000Z,981.5
2023-12-10T00:49:33.278Z,981.5
2023-12-10T00:50:49.608Z,981.6
2023-12-10T00:52:05.905Z,981.6
2023-12-10T00:53:22.201Z,981.6
2023-12-10T00:54:38.487Z,981.6
2023-12-10T00:55:54.000Z,981.7
2023-12-10T00:57:11.000Z,981.7
2023-12-10T00:58:27.000Z,981.6
2023-12-10T00:59:42.000Z,981.8
2023-12-10T01:00:58.000Z,981.8
2023-12-10T01:02:15.233Z,981.8
2023-12-10T01:03:31.574Z,981.8
2023-12-10T01:04:47.827Z,981.9
2023-12-10T01:06:04.152Z,981.9
2023-12-10T01:07:20.000Z,981.9
2023-12-10T01:08:36.000Z,981.9
2023-12-10T01:09:53.000Z,982
2023-12-10T01:11:09.319Z,982
2023-12-10T01:12:25.000Z,982
2023-12-10T01:13:41.873Z,982
2023-12-10T01:14:58.167Z,982
2023-12-10T01:16:13.474Z,982
2023-12-10T01:17:29.812Z,982
2023-12-10T01:18:46.103Z,982
2023-12-10T01:20:02.405Z,982
2023-12-10T01:21:18.688Z,982
2023-12-10T01:22:34.000Z,982
2023-12-10T01:23:51.279Z,982.1
2023-12-10T01:25:07.546Z,982.1
2023-12-10T01:26:23.876Z,982.1
2023-12-10T01:27:40.129Z,982.1
2023-12-10T01:28:56.411Z,982.1
2023-12-10T01:30:12.000Z,982.2
2023-12-10T01:31:29.038Z,982.1
2023-12-10T01:32:44.000Z,982.2
2023-12-10T01:34:00.609Z,982.2
2023-12-10T01:35:16.944Z,982.2
2023-12-10T01:36:33.235Z,982.1
2023-12-10T01:37:49.000Z,982.1
2023-12-10T01:39:05.000Z,982.1
2023-12-10T01:40:22.073Z,982.1
2023-12-10T01:41:38.416Z,982.1
2023-12-10T01:42:54.000Z,982.1
2023-12-10T01:44:10.991Z,982.1
2023-12-10T01:45:27.288Z,982.1
2023-12-10T01:46:43.576Z,982.2
2023-12-10T01:47:59.835Z,982.2
2023-12-10T01:49:15.150Z,982.2
2023-12-10T01:50:31.000Z,982.1
2023-12-10T01:51:47.777Z,982.2
2023-12-10T01:53:04.075Z,982.2
2023-12-10T01:54:20.000Z,982.2
2023-12-10T01:55:36.000Z,982.3
2023-12-10T01:56:52.958Z,982.3
2023-12-10T01:58:09.252Z,982.2
2023-12-10T01:59:25.530Z,982.3
2023-12-10T02:00:41.823Z,982.4
2023-12-10T02:01:58.000Z,982.3
2023-12-10T02:03:14.000Z,982.4
2023-12-10T02:04:30.725Z,982.5
2023-12-10T02:05:46.000Z,982.4
2023-12-10T02:07:02.282Z,982.4
2023-12-10T02:08:18.000Z,982.5
2023-12-10T02:09:34.904Z,982.5
2023-12-10T02:10:51.194Z,982.5
2023-12-10T02:12:07.000Z,982.6
2023-12-10T02:13:23.744Z,982.5
2023-12-10T02:14:40.076Z,982.5
2023-12-10T02:15:56.000Z,982.5
2023-12-10T02:17:12.630Z,982.5
2023-12-10T02:18:28.919Z,982.6
2023-12-10T02:19:45.248Z,982.5
2023-12-10T02:21:01.549Z,982.6
2023-12-10T02:22:16.853Z,982.6
2023-12-10T02:23:33.000Z,982.5
2023-12-10T02:24:49.000Z,982.7
2023-12-10T02:26:05.000Z,982.6
2023-12-10T02:27:22.047Z,982.5
2023-12-10T02:28:38.000Z,982.5
2023-12-10T02:29:54.625Z,982.6
2023-12-10T02:31:10.872Z,982.6
2023-12-10T02:32:27.212Z,982.7
2023-12-10T02:33:43.459Z,982.7
2023-12-10T02:34:59.803Z,982.7
2023-12-10T02:36:16.000Z,982.7
2023-12-10T02:37:32.000Z,982.7
2023-12-10T02:38:48.000Z,982.8
2023-12-10T02:40:05.090Z,982.8
2023-12-10T02:41:21.398Z,982.8
2023-12-10T02:42:37.654Z,982.8
2023-12-10T02:43:53.000Z,982.8
2023-12-10T02:45:10.000Z,982.8
2023-12-10T02:46:26.000Z,982.8
2023-12-10T02:47:42.000Z,982.8
2023-12-10T02:48:59.000Z,982.9
2023-12-10T02:50:15.446Z,982.9
2023-12-10T02:51:31.739Z,982.9
2023-12-10T02:52:48.029Z,982.9
2023-12-10T02:54:04.000Z,982.9
2023-12-10T02:55:19.000Z,983
2023-12-10T02:56:35.888Z,983
2023-12-10T02:57:52.220Z,983.1
2023-12-10T02:59:08.000Z,983.1
2023-12-10T03:00:24.000Z,983.2
2023-12-10T03:01:41.000Z,983.2
2023-12-10T03:02:57.398Z,983.3
2023-12-10T03:04:13.691Z,983.4
2023-12-10T03:05:29.000Z,983.4
2023-12-10T03:06:46.000Z,983.4
2023-12-10T03:08:02.549Z,983.4
2023-12-10T03:09:18.864Z,983.4
2023-12-10T03:10:35.000Z,983.4
2023-12-10T03:11:50.000Z,983.4
2023-12-10T03:13:06.721Z,983.5
2023-12-10T03:14:23.019Z,983.5
2023-12-10T03:15:39.350Z,983.6
2023-12-10T03:16:55.000Z,983.6
2023-12-10T03:18:11.000Z,983.5
2023-12-10T03:19:28.000Z,983.5
2023-12-10T03:20:44.000Z,983.5
2023-12-10T03:22:00.829Z,983.6
2023-12-10T03:23:17.109Z,983.6
2023-12-10T03:24:33.404Z,983.7
2023-12-10T03:25:49.000Z,983.7
2023-12-10T03:27:06.000Z,983.8
2023-12-10T03:28:21.000Z,983.8
2023-12-10T03:29:37.000Z,983.8
2023-12-10T03:30:53.893Z,983.7
2023-12-10T03:32:10.000Z,983.8
2023-12-10T03:33:26.000Z,983.8
2023-12-10T03:34:42.777Z,983.8
2023-12-10T03:35:59.025Z,983.9
2023-12-10T03:37:15.000Z,983.9
2023-12-10T03:38:31.666Z,984
2023-12-10T03:39:47.000Z,984
2023-12-10T03:41:04.000Z,984
2023-12-10T03:42:20.000Z,984
2023-12-10T03:43:36.840Z,983.9
2023-12-10T03:44:52.156Z,983.9
2023-12-10T03:46:08.389Z,984
2023-12-10T03:47:24.689Z,984
2023-12-10T03:48:41.000Z,984.1
2023-12-10T03:49:57.000Z,984.1
2023-12-10T03:51:13.000Z,984.1
2023-12-10T03:52:28.000Z,984.1
2023-12-10T03:53:45.216Z,984.2
2023-12-10T03:55:01.520Z,984.2
2023-12-10T03:56:17.809Z,984.3
2023-12-10T03:57:34.061Z,984.3
2023-12-10T03:58:50.000Z,984.3
2023-12-10T04:00:06.000Z,984.3
2023-12-10T04:01:22.000Z,984.3
2023-12-10T04:02:39.000Z,984.4
2023-12-10T04:03:55.000Z,984.3
2023-12-10T04:05:11.857Z,984.3
2023-12-10T04:06:28.114Z,984.4
2023-12-10T04:07:44.000Z,984.4
2023-12-10T04:08:59.760Z,984.4
2023-12-10T04:10:16.016Z,984.4
2023-12-10T04:11:32.000Z,984.4
2023-12-10T04:12:48.000Z,984.5
2023-12-10T04:14:04.000Z,984.6
2023-12-10T04:15:21.000Z,984.6
2023-12-10T04:16:37.519Z,984.7
2023-12-10T04:17:53.822Z,984.8
2023-12-10T04:19:10.064Z,984.8
2023-12-10T04:20:26.000Z,984.8
2023-12-10T04:21:42.000Z,984.8
2023-12-10T04:22:59.000Z,984.9
2023-12-10T04:24:15.250Z,984.9
2023-12-10T04:25:30.607Z,984.9
2023-12-10T04:26:46.889Z,984.9
2023-12-10T04:28:03.175Z,984.9
2023-12-10T04:29:19.480Z,984.9
2023-12-10T04:30:35.000Z,985
2023-12-10T04:31:52.063Z,985
2023-12-10T04:33:08.350Z,985.1
2023-12-10T04:34:24.000Z,985.1
2023-12-10T04:35:40.000Z,985.1
2023-12-10T04:36:57.204Z,985.1
2023-12-10T04:38:13.526Z,985.2
2023-12-10T04:39:29.825Z,985.2
2023-12-10T04:40:46.000Z,985.2
2023-12-10T04:42:01.000Z,985.1
2023-12-10T04:43:17.724Z,985.2
2023-12-10T04:44:34.000Z,985.2
2023-12-10T04:45:50.000Z,985.2
2023-12-10T04:47:06.606Z,985.2
2023-12-10T04:48:22.910Z,985.3
2023-12-10T04:49:39.201Z,985.2
2023-12-10T04:50:55.000Z,985.4
2023-12-10T04:52:11.000Z,985.4
2023-12-10T04:53:28.000Z,985.4
2023-12-10T04:54:44.368Z,985.4
2023-12-10T04:56:00.000Z,985.4
2023-12-10T04:57:16.969Z,985.4
2023-12-10T04:58:32.000Z,985.4
2023-12-10T04:59:48.516Z,985.4
2023-12-10T05:01:04.869Z,985.4
2023-12-10T05:02:21.000Z,985.5
2023-12-10T05:03:37.436Z,985.5
2023-12-10T05:04:53.000Z,985.5
2023-12-10T05:06:10.000Z,985.5
2023-12-10T05:07:26.000Z,985.5
2023-12-10T05:08:42.000Z,985.5
2023-12-10T05:09:58.864Z,985.6
2023-12-10T05:11:15.211Z,985.7
2023-12-10T05:12:31.000Z,985.7
2023-12-10T05:13:47.000Z,985.6
2023-12-10T05:15:03.000Z,985.7
2023-12-10T05:16:19.000Z,985.7
2023-12-10T05:17:35.000Z,985.7
2023-12-10T05:18:51.000Z,985.7
2023-12-10T05:20:08.286Z,985.7
2023-12-10T05:21:24.533Z,985.7
2023-12-10T05:22:40.878Z,985.8
2023-12-10T05:23:57.154Z,985.8
2023-12-10T05:25:13.000Z,985.8
2023-12-10T05:26:29.000Z,985.9
2023-12-10T05:27:46.000Z,985.9
2023-12-10T05:29:02.302Z,985.8
2023-12-10T05:30:18.633Z,985.8
2023-12-10T05:31:33.941Z,985.8
2023-12-10T05:32:50.240Z,985.9
2023-12-10T05:34:06.000Z,985.9
2023-12-10T05:35:22.000Z,986
2023-12-10T05:36:39.000Z,986
2023-12-10T05:37:55.000Z,986
2023-12-10T05:39:11.000Z,986
2023-12-10T05:40:27.955Z,986.1
2023-12-10T05:41:44.249Z,986.1
2023-12-10T05:43:00.578Z,986
2023-12-10T05:44:16.000Z,986.1
2023-12-10T05:45:33.000Z,986.1
2023-12-10T05:46:49.000Z,986.1
2023-12-10T05:48:04.777Z,986.2
2023-12-10T05:49:21.000Z,986.1
2023-12-10T05:50:37.000Z,986.1
2023-12-10T05:51:53.000Z,986.2
2023-12-10T05:53:09.954Z,986.2
2023-12-10T05:54:26.240Z,986.2
2023-12-10T05:55:42.551Z,986.2
2023-12-10T05:56:58.826Z,986.2
2023-12-10T05:58:15.000Z,986.2
2023-12-10T05:59:31.000Z,986.2
2023-12-10T06:00:47.669Z,986.2
2023-12-10T06:02:04.000Z,986.2
2023-12-10T06:03:20.000Z,986.2
2023-12-10T06:04:35.000Z,986.2
2023-12-10T06:05:51.859Z,986.3
2023-12-10T06:07:08.199Z,986.3
2023-12-10T06:08:24.449Z,986.3
2023-12-10T06:09:40.000Z,986.3
2023-12-10T06:10:57.000Z,986.2
2023-12-10T06:12:13.000Z,986.3
2023-12-10T06:13:29.000Z,986.3
2023-12-10T06:14:45.000Z,986.3
2023-12-10T06:16:02.253Z,986.3
2023-12-10T06:17:18.502Z,986.3
2023-12-10T06:18:34.840Z,986.3
2023-12-10T06:19:51.151Z,986.3
2023-12-10T06:21:06.000Z,986.3
2023-12-10T06:22:22.000Z,986.3
2023-12-10T06:23:39.033Z,986.4
2023-12-10T06:24:55.000Z,986.4
2023-12-10T06:26:11.627Z,986.4
2023-12-10T06:27:27.870Z,986.4
2023-12-10T06:28:44.213Z,986.4
2023-12-10T06:30:00.000Z,986.5
2023-12-10T06:31:16.758Z,986.5
2023-12-10T06:32:32.000Z,986.4
2023-12-10T06:33:49.222Z,986.5
2023-12-10T06:35:05.000Z,986.5
2023-12-10T06:36:21.669Z,986.5
2023-12-10T06:37:36.000Z,986.6
2023-12-10T06:38:53.208Z,986.5
2023-12-10T06:40:09.454Z,986.5
2023-12-10T06:41:25.688Z,986.5
2023-12-10T06:42:41.000Z,986.7
2023-12-10T06:43:58.000Z,986.6
2023-12-10T06:45:14.000Z,986.6
2023-12-10T06:46:30.593Z,986.6
2023-12-10T06:47:46.000Z,986.7
2023-12-10T06:49:03.071Z,986.7
2023-12-10T06:50:19.365Z,986.8
2023-12-10T06:51:35.601Z,986.8
2023-12-10T06:52:51.842Z,986.8
2023-12-10T06:54:07.098Z,986.9
2023-12-10T06:55:23.000Z,986.8
2023-12-10T06:56:39.574Z,986.8
2023-12-10T06:57:55.768Z,986.8
2023-12-10T07:00:28.248Z,986.9
2023-12-10T07:01:44.539Z,986.9
2023-12-10T07:03:00.775Z,986.9
2023-12-10T07:04:17.012Z,986.9
2023-12-10T07:05:33.000Z,986.9
2023-12-10T07:06:49.000Z,986.9
2023-12-10T07:08:05.000Z,987
2023-12-10T07:09:21.970Z,986.9
2023-12-10T07:10:37.192Z,987
2023-12-10T07:11:53.464Z,987
2023-12-10T07:13:09.661Z,987
2023-12-10T07:14:25.000Z,987
2023-12-10T07:15:42.000Z,987
2023-12-10T07:16:58.383Z,987
2023-12-10T07:18:14.000Z,987
2023-12-10T07:19:30.905Z,987
2023-12-10T07:20:47.000Z,987
2023-12-10T07:22:03.343Z,987
2023-12-10T07:23:19.584Z,987
2023-12-10T07:24:35.871Z,987
2023-12-10T07:25:52.000Z,987
2023-12-10T07:27:07.372Z,987
2023-12-10T07:28:23.000Z,987
2023-12-10T07:29:39.000Z,987
2023-12-10T07:30:56.000Z,987
2023-12-10T07:32:12.000Z,987.1
2023-12-10T07:33:28.000Z,987
2023-12-10T07:34:44.807Z,987
2023-12-10T07:36:01.001Z,987
2023-12-10T07:37:17.000Z,987.1
2023-12-10T07:38:33.000Z,987.1
2023-12-10T07:39:49.767Z,987.1
2023-12-10T07:41:06.000Z,987.1
2023-12-10T07:42:22.203Z,987.1
2023-12-10T07:43:38.499Z,987.2
2023-12-10T07:44:53.745Z,987.2
2023-12-10T07:46:09.989Z,987.2
2023-12-10T07:47:26.218Z,987.1
2023-12-10T07:48:42.000Z,987.1
2023-12-10T07:49:58.701Z,987.1
2023-12-10T07:51:14.888Z,987.1
2023-12-10T07:52:31.000Z,987.1
2023-12-10T07:53:47.000Z,987.1
2023-12-10T07:55:03.609Z,987.1
2023-12-10T07:56:19.894Z,987.1
2023-12-10T07:57:36.139Z,987.2
2023-12-10T07:58:52.000Z,987.2
2023-12-10T08:00:08.616Z,987.2
2023-12-10T08:01:23.872Z,987.3
2023-12-10T08:02:40.114Z,987.3
2023-12-10T08:03:56.000Z,987.3
2023-12-10T08:05:12.609Z,987.3
2023-12-10T08:06:28.791Z,987.3
2023-12-10T08:07:44.109Z,987.3
2023-12-10T08:09:00.349Z,987.3
2023-12-10T08:10:16.000Z,987.3
2023-12-10T08:11:32.000Z,987.3
2023-12-10T08:12:49.000Z,987.3
2023-12-10T08:14:05.000Z,987.3
2023-12-10T08:15:21.000Z,987.4
2023-12-10T08:16:37.000Z,987.3
2023-12-10T08:17:54.017Z,987.3
2023-12-10T08:19:10.260Z,987.4
2023-12-10T08:20:26.503Z,987.4
2023-12-10T08:21:42.000Z,987.4
2023-12-10T08:22:58.980Z,987.4
2023-12-10T08:24:15.000Z,987.4
2023-12-10T08:25:31.000Z,987.4
2023-12-10T08:26:47.000Z,987.4
2023-12-10T08:28:04.060Z,987.4
2023-12-10T08:29:20.296Z,987.5
2023-12-10T08:30:36.000Z,987.5
2023-12-10T08:31:52.000Z,987.5
2023-12-10T08:33:09.000Z,987.4
2023-12-10T08:34:25.000Z,987.4
2023-12-10T08:35:41.000Z,987.5
2023-12-10T08:36:57.691Z,987.4
2023-12-10T08:38:13.982Z,987.4
2023-12-10T08:39:30.219Z,987.5
2023-12-10T08:40:46.532Z,987.4
2023-12-10T08:42:02.000Z,987.5
2023-12-10T08:43:19.005Z,987.5
2023-12-10T08:44:35.000Z,987.6
2023-12-10T08:45:51.000Z,987.5
2023-12-10T08:47:07.000Z,987.5
2023-12-10T08:48:24.000Z,987.5
2023-12-10T08:49:40.201Z,987.5
2023-12-10T08:50:56.450Z,987.5
2023-12-10T08:52:12.000Z,987.5
2023-12-10T08:53:28.000Z,987.6
2023-12-10T08:54:45.000Z,987.6
2023-12-10T08:56:01.000Z,987.6
2023-12-10T08:57:16.000Z,987.6
2023-12-10T08:58:32.000Z,987.6
2023-12-10T08:59:49.134Z,987.7
2023-12-10T09:01:05.376Z,987.7
2023-12-10T09:02:21.000Z,987.7
2023-12-10T09:03:37.000Z,987.7
2023-12-10T09:04:54.000Z,987.7
2023-12-10T09:06:10.391Z,987.7
2023-12-10T09:07:26.000Z,987.7
2023-12-10T09:08:42.000Z,987.8
2023-12-10T09:09:59.000Z,987.7
2023-12-10T09:11:15.289Z,987.8
2023-12-10T09:12:31.597Z,987.8
2023-12-10T09:13:47.890Z,987.8
2023-12-10T09:15:04.000Z,987.8
2023-12-10T09:16:20.417Z,987.8
2023-12-10T09:17:36.000Z,987.9
2023-12-10T09:18:52.856Z,987.9
2023-12-10T09:20:09.000Z,987.9
2023-12-10T09:21:25.331Z,987.9
2023-12-10T09:22:41.569Z,987.9
2023-12-10T09:23:57.807Z,988
2023-12-10T09:25:14.110Z,988
2023-12-10T09:26:30.000Z,988
2023-12-10T09:27:46.000Z,988.1
2023-12-10T09:29:02.000Z,988
2023-12-10T09:30:18.000Z,988
2023-12-10T09:31:34.264Z,988
2023-12-10T09:32:50.559Z,988
2023-12-10T09:34:06.743Z,988
2023-12-10T09:35:22.985Z,988
2023-12-10T09:36:39.281Z,988.1
2023-12-10T09:37:55.509Z,988.1
2023-12-10T09:39:11.000Z,988.1
2023-12-10T09:40:27.000Z,988.2
2023-12-10T09:41:44.181Z,988.1
2023-12-10T09:43:00.414Z,988.1
2023-12-10T09:44:16.713Z,988.1
2023-12-10T09:45:32.950Z,988
2023-12-10T09:46:48.000Z,988
2023-12-10T09:48:04.000Z,988
2023-12-10T09:49:20.000Z,988
2023-12-10T09:50:36.000Z,988
2023-12-10T09:51:53.167Z,988
2023-12-10T09:53:09.359Z,988
2023-12-10T09:54:25.637Z,988
2023-12-10T09:55:41.845Z,988
2023-12-10T09:56:58.068Z,987.9
2023-12-10T09:58:14.000Z,987.9
2023-12-10T09:59:30.553Z,987.9
2023-12-10T10:00:46.000Z,987.9
2023-12-10T10:02:03.000Z,988
2023-12-10T10:03:19.449Z,987.9
2023-12-10T10:04:35.695Z,988
2023-12-10T10:05:51.000Z,987.9
2023-12-10T10:07:08.168Z,987.9
2023-12-10T10:08:24.347Z,988
2023-12-10T10:09:40.000Z,987.9
2023-12-10T10:10:56.000Z,988
2023-12-10T10:12:13.116Z,987.9
2023-12-10T10:13:29.000Z,988
2023-12-10T10:14:45.598Z,987.9
2023-12-10T10:16:01.791Z,987.8
2023-12-10T10:17:18.000Z,987.8
2023-12-10T10:18:34.000Z,987.8
2023-12-10T10:19:49.000Z,987.8
2023-12-10T10:21:05.827Z,987.9
2023-12-10T10:22:22.065Z,987.8
2023-12-10T10:23:38.000Z,987.9
2023-12-10T10:24:54.529Z,987.9
2023-12-10T10:26:10.773Z,987.9
2023-12-10T10:27:27.013Z,987.9
2023-12-10T10:28:43.252Z,987.9
2023-12-10T10:29:59.494Z,987.9
2023-12-10T10:31:15.679Z,988
2023-12-10T10:32:31.000Z,988
2023-12-10T10:33:48.223Z,988
2023-12-10T10:35:04.460Z,987.9
2023-12-10T10:36:19.707Z,987.9
2023-12-10T10:37:35.949Z,988
2023-12-10T10:38:52.195Z,988
2023-12-10T10:40:08.000Z,987.9
2023-12-10T10:41:24.680Z,988
2023-12-10T10:42:40.000Z,988
2023-12-10T10:43:57.139Z,987.9
2023-12-10T10:45:13.333Z,987.9
2023-12-10T10:46:29.567Z,988
2023-12-10T10:47:45.876Z,987.9
2023-12-10T10:49:02.105Z,987.9
2023-12-10T10:50:18.353Z,987.9
2023-12-10T10:51:34.000Z,987.9
2023-12-10T10:52:49.785Z,988
2023-12-10T10:54:06.000Z,988.1
2023-12-10T10:55:22.000Z,988
2023-12-10T10:56:38.000Z,988
2023-12-10T10:57:54.804Z,988
2023-12-10T10:59:11.033Z,988
2023-12-10T11:00:27.221Z,988.1
2023-12-10T11:01:43.000Z,988
2023-12-10T11:02:59.000Z,988
2023-12-10T11:04:16.000Z,988.1
2023-12-10T11:05:32.223Z,988
2023-12-10T11:06:48.000Z,988
2023-12-10T11:08:04.000Z,988.1
2023-12-10T11:09:19.000Z,988.1
2023-12-10T11:10:36.187Z,987.9
2023-12-10T11:11:52.422Z,988
2023-12-10T11:13:08.661Z,988.1
2023-12-10T11:14:24.868Z,988.1
2023-12-10T11:15:41.152Z,988.1
2023-12-10T11:16:57.000Z,988
2023-12-10T11:18:13.619Z,988.1
2023-12-10T11:19:29.876Z,988
2023-12-10T11:20:46.100Z,988.1
2023-12-10T11:22:02.334Z,988.1
2023-12-10T11:23:18.592Z,988.1
2023-12-10T11:24:34.000Z,988.1
2023-12-10T11:25:50.075Z,988.1
2023-12-10T11:27:06.319Z,988.1
2023-12-10T11:28:22.554Z,988
2023-12-10T11:29:38.810Z,988
2023-12-10T11:30:55.030Z,988.1
2023-12-10T11:32:11.277Z,988.1
2023-12-10T11:33:27.508Z,988.2
2023-12-10T11:34:43.000Z,988.1
2023-12-10T11:36:00.008Z,988.1
2023-12-10T11:37:16.238Z,988.1
2023-12-10T11:38:32.483Z,988.1
2023-12-10T11:39:48.000Z,988.1
2023-12-10T11:41:04.000Z,988.1
2023-12-10T11:42:20.211Z,988.1
2023-12-10T11:43:36.453Z,988.1
2023-12-10T11:44:52.691Z,988.1
2023-12-10T11:46:08.927Z,988.1
2023-12-10T11:47:25.000Z,988.1
2023-12-10T11:48:41.409Z,988
2023-12-10T11:49:57.000Z,988.1
2023-12-10T11:51:13.000Z,988
2023-12-10T11:52:30.000Z,988
2023-12-10T11:53:46.360Z,988.1
2023-12-10T11:55:02.609Z,988
2023-12-10T11:56:18.839Z,988
2023-12-10T11:57:35.000Z,988.1
2023-12-10T11:58:50.000Z,988.1
2023-12-10T12:00:06.000Z,988.1
2023-12-10T12:01:22.821Z,988.1
2023-12-10T12:02:39.000Z,988
2023-12-10T12:03:55.000Z,988.1
2023-12-10T12:05:11.531Z,988.1
2023-12-10T12:06:27.767Z,988.1
2023-12-10T12:07:44.000Z,988.1
2023-12-10T12:09:00.000Z,988
2023-12-10T12:10:16.000Z,988.1
2023-12-10T12:11:32.735Z,988.1
2023-12-10T12:12:48.970Z,988.1
2023-12-10T12:14:05.225Z,988
2023-12-10T12:15:21.589Z,988
2023-12-10T12:16:37.815Z,988.1
2023-12-10T12:17:54.060Z,988
2023-12-10T12:19:10.000Z,988
2023-12-10T12:20:26.000Z,988
2023-12-10T12:21:42.772Z,988
2023-12-10T12:22:58.000Z,988.1
2023-12-10T12:24:14.272Z,988
2023-12-10T12:25:30.000Z,988
2023-12-10T12:26:46.755Z,988
2023-12-10T12:28:02.987Z,988
2023-12-10T12:29:19.241Z,988.1
2023-12-10T12:30:35.469Z,988
2023-12-10T12:31:51.711Z,988.1
2023-12-10T12:33:07.000Z,988.1
2023-12-10T12:34:24.184Z,988.1
2023-12-10T12:35:40.431Z,988.2
2023-12-10T12:36:56.681Z,988.2
2023-12-10T12:38:12.918Z,988.1
2023-12-10T12:39:28.159Z,988.1
2023-12-10T12:40:44.406Z,988.1
2023-12-10T12:42:00.000Z,988.1
2023-12-10T12:43:16.895Z,988.2
2023-12-10T12:44:33.000Z,988.1
2023-12-10T12:45:49.363Z,988.2
2023-12-10T12:47:05.605Z,988.2
2023-12-10T12:48:21.837Z,988.1
2023-12-10T12:49:38.075Z,988.2
2023-12-10T12:50:54.306Z,988.3
2023-12-10T12:52:10.552Z,988.2
2023-12-10T12:53:26.790Z,988.3
2023-12-10T12:54:43.049Z,988.2
2023-12-10T12:55:58.302Z,988.2
2023-12-10T12:57:14.528Z,988.3
2023-12-10T12:58:30.781Z,988.3
2023-12-10T12:59:47.009Z,988.2
2023-12-10T13:01:03.246Z,988.3
2023-12-10T13:02:19.501Z,988.2
2023-12-10T13:03:35.738Z,988.1
2023-12-10T13:04:51.973Z,988.2
2023-12-10T13:06:08.211Z,988.2
2023-12-10T13:07:24.449Z,988.3
2023-12-10T13:08:40.000Z,988.3
2023-12-10T13:09:56.927Z,988.3
2023-12-10T13:11:13.178Z,988.4
2023-12-10T13:12:28.000Z,988.4
2023-12-10T13:13:44.670Z,988.4
2023-12-10T13:15:00.908Z,988.5
2023-12-10T13:16:17.137Z,988.4
2023-12-10T13:17:33.382Z,988.4
2023-12-10T13:18:49.000Z,988.5
2023-12-10T13:20:05.000Z,988.5
2023-12-10T13:21:22.099Z,988.5
2023-12-10T13:22:38.341Z,988.7
2023-12-10T13:23:54.581Z,988.6
2023-12-10T13:25:10.806Z,988.7
2023-12-10T13:26:27.057Z,988.7
2023-12-10T13:27:43.293Z,988.6
2023-12-10T13:28:59.659Z,988.7
2023-12-10T13:30:15.900Z,988.7
2023-12-10T13:31:32.138Z,988.7
2023-12-10T13:32:48.380Z,988.7
2023-12-10T13:34:04.628Z,988.8
2023-12-10T13:35:20.845Z,988.8
2023-12-10T13:36:37.090Z,988.8
2023-12-10T13:37:53.341Z,988.9
2023-12-10T13:39:09.578Z,988.8
2023-12-10T13:40:25.823Z,988.8
2023-12-10T13:41:42.000Z,988.9
2023-12-10T13:42:58.000Z,988.9
2023-12-10T13:44:14.543Z,988.9
2023-12-10T13:45:29.785Z,988.9
2023-12-10T13:46:46.000Z,989
2023-12-10T13:48:02.265Z,989
2023-12-10T13:49:18.499Z,989
2023-12-10T13:50:34.743Z,988.9
2023-12-10T13:51:51.000Z,989
2023-12-10T13:53:07.217Z,989
2023-12-10T13:54:23.460Z,989
2023-12-10T13:55:39.705Z,989
2023-12-10T13:56:55.940Z,989
2023-12-10T13:58:12.181Z,989
2023-12-10T13:59:28.428Z,989
2023-12-10T14:00:44.657Z,989
2023-12-10T14:01:59.000Z,989.1
2023-12-10T14:03:16.161Z,989.1
2023-12-10T14:04:32.000Z,989.1
2023-12-10T14:05:48.632Z,989.1
2023-12-10T14:07:04.000Z,989.2
2023-12-10T14:08:21.101Z,989.1
2023-12-10T14:09:37.349Z,989.1
2023-12-10T14:10:53.583Z,989.2
2023-12-10T14:12:09.000Z,989.2
2023-12-10T14:13:26.000Z,989.1
2023-12-10T14:14:42.308Z,989.2
2023-12-10T14:15:58.000Z,989.3
2023-12-10T14:17:14.786Z,989.2
2023-12-10T14:18:30.052Z,989.2
2023-12-10T14:19:46.282Z,989.3
2023-12-10T14:21:02.512Z,989.3
2023-12-10T14:22:18.772Z,989.2
2023-12-10T14:23:35.000Z,989.3
2023-12-10T14:24:51.000Z,989.3
2023-12-10T14:26:07.000Z,989.3
2023-12-10T14:27:23.732Z,989.3
2023-12-10T14:28:39.000Z,989.4
2023-12-10T14:29:56.000Z,989.4
2023-12-10T14:31:12.438Z,989.3
2023-12-10T14:32:28.677Z,989.4
2023-12-10T14:33:44.915Z,989.3
2023-12-10T14:35:01.158Z,989.3
2023-12-10T14:36:16.000Z,989.3
2023-12-10T14:37:32.657Z,989.3
2023-12-10T14:38:48.000Z,989.3
2023-12-10T14:40:05.000Z,989.3
2023-12-10T14:41:21.381Z,989.3
2023-12-10T14:42:37.622Z,989.3
2023-12-10T14:43:53.000Z,989.2
2023-12-10T14:45:10.000Z,989.3
2023-12-10T14:46:26.000Z,989.3
2023-12-10T14:47:42.572Z,989.3
2023-12-10T14:48:58.000Z,989.3
2023-12-10T14:50:15.000Z,989.2
2023-12-10T14:51:31.304Z,989.2
2023-12-10T14:52:46.556Z,989.2
2023-12-10T14:54:02.791Z,989.2
2023-12-10T14:55:19.000Z,989.2
2023-12-10T14:56:35.259Z,989.3
2023-12-10T14:57:51.000Z,989.4
2023-12-10T14:59:07.000Z,989.2
2023-12-10T15:00:24.000Z,989.3
2023-12-10T15:01:40.000Z,989.3
2023-12-10T15:02:56.476Z,989.4
2023-12-10T15:04:12.704Z,989.4
2023-12-10T15:05:28.000Z,989.4
2023-12-10T15:06:45.177Z,989.4
2023-12-10T15:08:01.000Z,989.4
2023-12-10T15:09:16.000Z,989.4
2023-12-10T15:10:32.915Z,989.5
2023-12-10T15:11:49.145Z,989.5
2023-12-10T15:13:05.000Z,989.4
2023-12-10T15:14:21.632Z,989.4
2023-12-10T15:15:37.868Z,989.4
2023-12-10T15:16:54.000Z,989.4
2023-12-10T15:18:10.000Z,989.4
2023-12-10T15:19:26.588Z,989.5
2023-12-10T15:20:42.000Z,989.4
2023-12-10T15:21:59.000Z,989.5
2023-12-10T15:23:15.000Z,989.4
2023-12-10T15:24:31.560Z,989.5
2023-12-10T15:25:46.000Z,989.5
2023-12-10T15:27:03.034Z,989.5
2023-12-10T15:28:19.280Z,989.5
2023-12-10T15:29:35.000Z,989.5
2023-12-10T15:30:51.827Z,989.5
2023-12-10T15:32:08.101Z,989.5
2023-12-10T15:33:24.000Z,989.5
2023-12-10T15:34:40.713Z,989.5
2023-12-10T15:35:56.982Z,989.5
2023-12-10T15:37:13.296Z,989.5
2023-12-10T15:38:29.576Z,989.5
2023-12-10T15:39:45.000Z,989.5
2023-12-10T15:41:02.169Z,989.5
2023-12-10T15:42:17.480Z,989.5
2023-12-10T15:43:33.774Z,989.5
2023-12-10T15:44:50.000Z,989.7
2023-12-10T15:46:06.363Z,989.7
2023-12-10T15:47:22.647Z,989.7
2023-12-10T15:48:38.942Z,989.6
2023-12-10T15:49:55.235Z,989.7
2023-12-10T15:51:11.528Z,989.7
2023-12-10T15:52:27.000Z,989.7
2023-12-10T15:53:44.000Z,989.7
2023-12-10T15:55:00.413Z,989.7
2023-12-10T15:56:16.693Z,989.7
2023-12-10T15:57:32.992Z,989.7
2023-12-10T15:58:48.315Z,989.7
2023-12-10T16:00:04.605Z,989.7
2023-12-10T16:01:20.000Z,989.6
2023-12-10T16:02:37.204Z,989.6
2023-12-10T16:03:53.000Z,989.6
2023-12-10T16:05:09.000Z,989.6
2023-12-10T16:06:26.000Z,989.6
2023-12-10T16:07:42.362Z,989.6
2023-12-10T16:08:58.654Z,989.6
2023-12-10T16:10:14.955Z,989.6
2023-12-10T16:11:31.000Z,989.6
2023-12-10T16:12:47.000Z,989.6
2023-12-10T16:14:03.000Z,989.6
2023-12-10T16:15:19.000Z,989.6
2023-12-10T16:16:35.437Z,989.7
2023-12-10T16:17:51.738Z,989.6
2023-12-10T16:19:08.000Z,989.5
2023-12-10T16:20:24.305Z,989.5
2023-12-10T16:21:40.595Z,989.5
2023-12-10T16:22:56.896Z,989.5
2023-12-10T16:24:13.000Z,989.5
2023-12-10T16:25:29.485Z,989.5
2023-12-10T16:26:45.000Z,989.4
2023-12-10T16:28:02.000Z,989.5
2023-12-10T16:29:18.365Z,989.5
2023-12-10T16:30:34.659Z,989.6
2023-12-10T16:31:49.968Z,989.5
2023-12-10T16:33:06.270Z,989.5